sensor_id;sensor_type;location;lat;lon;timestamp;temperature;humidity
76211;DHT22;65003;49.518;11.280;2023-05-16T00:00:49;13.10;84.00
76211;DHT22;65003;49.518;11.280;2023-05-16T00:03:16;13.10;84.20
76211;DHT22;65003;49.518;11.280;2023-05-16T00:05:42;13.10;84.10
76211;DHT22;65003;49.518;11.280;2023-05-16T00:08:09;13.10;85.20
76211;DHT22;65003;49.518;11.280;2023-05-16T00:10:36;13.00;85.70
76211;DHT22;65003;49.518;11.280;2023-05-16T00:13:02;12.70;87.20
76211;DHT22;65003;49.518;11.280;2023-05-16T00:15:30;12.50;87.90
76211;DHT22;65003;49.518;11.280;2023-05-16T00:17:56;12.30;88.80
76211;DHT22;65003;49.518;11.280;2023-05-16T00:20:25;12.20;89.20
76211;DHT22;65003;49.518;11.280;2023-05-16T00:22:51;12.20;90.10
76211;DHT22;65003;49.518;11.280;2023-05-16T00:25:18;12.30;89.60
76211;DHT22;65003;49.518;11.280;2023-05-16T00:27:44;12.50;88.60
76211;DHT22;65003;49.518;11.280;2023-05-16T00:30:11;12.60;88.00
76211;DHT22;65003;49.518;11.280;2023-05-16T00:32:38;12.70;87.10
76211;DHT22;65003;49.518;11.280;2023-05-16T00:35:05;12.70;86.90
76211;DHT22;65003;49.518;11.280;2023-05-16T00:37:32;12.70;86.60
76211;DHT22;65003;49.518;11.280;2023-05-16T00:39:58;12.60;87.00
76211;DHT22;65003;49.518;11.280;2023-05-16T00:42:25;12.50;87.20
76211;DHT22;65003;49.518;11.280;2023-05-16T00:44:52;12.50;87.30
76211;DHT22;65003;49.518;11.280;2023-05-16T00:47:18;12.20;88.50
76211;DHT22;65003;49.518;11.280;2023-05-16T00:49:45;12.10;89.20
76211;DHT22;65003;49.518;11.280;2023-05-16T00:52:12;12.10;89.20
76211;DHT22;65003;49.518;11.280;2023-05-16T00:54:38;12.20;88.80
76211;DHT22;65003;49.518;11.280;2023-05-16T00:57:05;12.30;88.80
76211;DHT22;65003;49.518;11.280;2023-05-16T00:59:31;12.10;89.40
76211;DHT22;65003;49.518;11.280;2023-05-16T01:01:59;12.20;89.70
76211;DHT22;65003;49.518;11.280;2023-05-16T01:04:25;12.30;89.10
76211;DHT22;65003;49.518;11.280;2023-05-16T01:06:51;12.40;88.60
76211;DHT22;65003;49.518;11.280;2023-05-16T01:09:18;12.60;87.50
76211;DHT22;65003;49.518;11.280;2023-05-16T01:11:52;12.60;87.00
76211;DHT22;65003;49.518;11.280;2023-05-16T01:14:25;12.60;86.80
76211;DHT22;65003;49.518;11.280;2023-05-16T01:16:55;12.70;86.30
76211;DHT22;65003;49.518;11.280;2023-05-16T01:19:31;12.70;86.10
76211;DHT22;65003;49.518;11.280;2023-05-16T01:22:09;12.60;86.50
76211;DHT22;65003;49.518;11.280;2023-05-16T01:24:33;12.60;85.70
76211;DHT22;65003;49.518;11.280;2023-05-16T01:26:59;12.50;86.70
76211;DHT22;65003;49.518;11.280;2023-05-16T01:29:25;12.50;87.20
76211;DHT22;65003;49.518;11.280;2023-05-16T01:31:52;12.50;86.70
76211;DHT22;65003;49.518;11.280;2023-05-16T01:34:19;12.50;86.30
76211;DHT22;65003;49.518;11.280;2023-05-16T01:36:50;12.50;86.50
76211;DHT22;65003;49.518;11.280;2023-05-16T01:39:32;12.50;86.00
76211;DHT22;65003;49.518;11.280;2023-05-16T01:42:04;12.40;86.70
76211;DHT22;65003;49.518;11.280;2023-05-16T01:44:35;12.40;86.80
76211;DHT22;65003;49.518;11.280;2023-05-16T01:47:01;12.40;87.20
76211;DHT22;65003;49.518;11.280;2023-05-16T01:49:33;12.30;87.30
76211;DHT22;65003;49.518;11.280;2023-05-16T01:52:03;12.40;87.20
76211;DHT22;65003;49.518;11.280;2023-05-16T01:54:29;12.30;87.60
76211;DHT22;65003;49.518;11.280;2023-05-16T01:56:54;12.30;88.00
76211;DHT22;65003;49.518;11.280;2023-05-16T01:59:21;12.30;87.80
76211;DHT22;65003;49.518;11.280;2023-05-16T02:01:47;12.30;87.60
76211;DHT22;65003;49.518;11.280;2023-05-16T02:04:14;12.20;87.50
76211;DHT22;65003;49.518;11.280;2023-05-16T02:06:40;12.20;87.50
76211;DHT22;65003;49.518;11.280;2023-05-16T02:09:07;12.10;87.50
76211;DHT22;65003;49.518;11.280;2023-05-16T02:11:33;12.10;87.70
76211;DHT22;65003;49.518;11.280;2023-05-16T02:14:00;12.10;88.30
76211;DHT22;65003;49.518;11.280;2023-05-16T02:16:28;12.20;87.80
76211;DHT22;65003;49.518;11.280;2023-05-16T02:18:53;12.20;87.50
76211;DHT22;65003;49.518;11.280;2023-05-16T02:21:20;12.10;87.50
76211;DHT22;65003;49.518;11.280;2023-05-16T02:23:47;11.80;88.60
76211;DHT22;65003;49.518;11.280;2023-05-16T02:26:14;11.60;89.60
76211;DHT22;65003;49.518;11.280;2023-05-16T02:28:41;11.60;90.00
76211;DHT22;65003;49.518;11.280;2023-05-16T02:31:07;11.70;89.70
76211;DHT22;65003;49.518;11.280;2023-05-16T02:33:34;11.50;90.10
76211;DHT22;65003;49.518;11.280;2023-05-16T02:36:01;11.10;91.20
76211;DHT22;65003;49.518;11.280;2023-05-16T02:38:27;10.70;92.10
76211;DHT22;65003;49.518;11.280;2023-05-16T02:40:55;10.50;92.70
76211;DHT22;65003;49.518;11.280;2023-05-16T02:43:22;10.40;93.00
76211;DHT22;65003;49.518;11.280;2023-05-16T02:45:49;10.70;92.70
76211;DHT22;65003;49.518;11.280;2023-05-16T02:48:15;10.50;92.70
76211;DHT22;65003;49.518;11.280;2023-05-16T02:50:42;10.40;93.30
76211;DHT22;65003;49.518;11.280;2023-05-16T02:53:08;10.30;93.50
76211;DHT22;65003;49.518;11.280;2023-05-16T02:55:35;10.20;93.80
76211;DHT22;65003;49.518;11.280;2023-05-16T02:58:02;10.20;93.70
76211;DHT22;65003;49.518;11.280;2023-05-16T03:00:29;10.60;93.00
76211;DHT22;65003;49.518;11.280;2023-05-16T03:02:55;10.80;92.50
76211;DHT22;65003;49.518;11.280;2023-05-16T03:05:21;11.10;91.70
76211;DHT22;65003;49.518;11.280;2023-05-16T03:07:48;11.10;91.20
76211;DHT22;65003;49.518;11.280;2023-05-16T03:10:15;11.20;91.00
76211;DHT22;65003;49.518;11.280;2023-05-16T03:12:42;11.30;90.70
76211;DHT22;65003;49.518;11.280;2023-05-16T03:15:09;11.30;90.20
76211;DHT22;65003;49.518;11.280;2023-05-16T03:17:36;11.40;90.10
76211;DHT22;65003;49.518;11.280;2023-05-16T03:20:02;11.40;90.60
76211;DHT22;65003;49.518;11.280;2023-05-16T03:22:29;11.40;90.40
76211;DHT22;65003;49.518;11.280;2023-05-16T03:24:56;11.10;90.90
76211;DHT22;65003;49.518;11.280;2023-05-16T03:27:22;10.90;91.60
76211;DHT22;65003;49.518;11.280;2023-05-16T03:29:49;10.90;92.00
76211;DHT22;65003;49.518;11.280;2023-05-16T03:32:15;11.10;91.40
76211;DHT22;65003;49.518;11.280;2023-05-16T03:34:42;11.20;91.30
76211;DHT22;65003;49.518;11.280;2023-05-16T03:37:09;11.10;91.40
76211;DHT22;65003;49.518;11.280;2023-05-16T03:39:35;11.00;92.00
76211;DHT22;65003;49.518;11.280;2023-05-16T03:42:02;11.10;91.80
76211;DHT22;65003;49.518;11.280;2023-05-16T03:44:29;11.30;91.50
76211;DHT22;65003;49.518;11.280;2023-05-16T03:46:55;11.40;91.50
76211;DHT22;65003;49.518;11.280;2023-05-16T03:49:24;12.10;91.30
76211;DHT22;65003;49.518;11.280;2023-05-16T03:51:49;11.50;90.90
76211;DHT22;65003;49.518;11.280;2023-05-16T03:54:15;11.60;90.80
76211;DHT22;65003;49.518;11.280;2023-05-16T03:56:42;11.70;90.30
76211;DHT22;65003;49.518;11.280;2023-05-16T03:59:08;11.80;90.60
76211;DHT22;65003;49.518;11.280;2023-05-16T04:01:35;11.80;90.40
76211;DHT22;65003;49.518;11.280;2023-05-16T04:04:02;11.90;90.30
76211;DHT22;65003;49.518;11.280;2023-05-16T04:06:28;11.90;90.30
76211;DHT22;65003;49.518;11.280;2023-05-16T04:08:55;11.90;90.60
76211;DHT22;65003;49.518;11.280;2023-05-16T04:11:22;12.00;90.40
76211;DHT22;65003;49.518;11.280;2023-05-16T04:13:49;12.10;90.00
76211;DHT22;65003;49.518;11.280;2023-05-16T04:16:16;12.20;89.70
76211;DHT22;65003;49.518;11.280;2023-05-16T04:18:42;12.20;89.70
76211;DHT22;65003;49.518;11.280;2023-05-16T04:21:09;12.20;89.90
76211;DHT22;65003;49.518;11.280;2023-05-16T04:23:37;12.30;90.30
76211;DHT22;65003;49.518;11.280;2023-05-16T04:26:03;12.30;90.00
76211;DHT22;65003;49.518;11.280;2023-05-16T04:28:30;12.30;90.10
76211;DHT22;65003;49.518;11.280;2023-05-16T04:30:57;12.30;90.00
76211;DHT22;65003;49.518;11.280;2023-05-16T04:33:23;12.30;90.00
76211;DHT22;65003;49.518;11.280;2023-05-16T04:35:50;12.40;90.20
76211;DHT22;65003;49.518;11.280;2023-05-16T04:38:16;12.40;90.00
76211;DHT22;65003;49.518;11.280;2023-05-16T04:40:43;11.30;89.80
76211;DHT22;65003;49.518;11.280;2023-05-16T04:43:10;12.40;90.30
76211;DHT22;65003;49.518;11.280;2023-05-16T04:45:36;12.20;90.80
76211;DHT22;65003;49.518;11.280;2023-05-16T04:48:03;12.10;91.10
76211;DHT22;65003;49.518;11.280;2023-05-16T04:50:30;12.00;91.60
76211;DHT22;65003;49.518;11.280;2023-05-16T04:52:57;11.90;91.60
76211;DHT22;65003;49.518;11.280;2023-05-16T04:55:24;11.90;91.70
76211;DHT22;65003;49.518;11.280;2023-05-16T04:57:51;12.00;91.50
76211;DHT22;65003;49.518;11.280;2023-05-16T05:00:17;12.10;91.50
76211;DHT22;65003;49.518;11.280;2023-05-16T05:02:44;12.30;91.20
76211;DHT22;65003;49.518;11.280;2023-05-16T05:05:11;12.20;91.30
76211;DHT22;65003;49.518;11.280;2023-05-16T05:07:37;12.20;91.50
76211;DHT22;65003;49.518;11.280;2023-05-16T05:10:04;12.20;91.40
76211;DHT22;65003;49.518;11.280;2023-05-16T05:12:31;12.30;91.10
76211;DHT22;65003;49.518;11.280;2023-05-16T05:14:57;12.30;91.30
76211;DHT22;65003;49.518;11.280;2023-05-16T05:17:24;12.50;91.10
76211;DHT22;65003;49.518;11.280;2023-05-16T05:19:51;12.70;90.70
76211;DHT22;65003;49.518;11.280;2023-05-16T05:22:17;12.40;91.10
76211;DHT22;65003;49.518;11.280;2023-05-16T05:24:44;12.30;91.50
76211;DHT22;65003;49.518;11.280;2023-05-16T05:27:10;12.20;91.70
76211;DHT22;65003;49.518;11.280;2023-05-16T05:29:37;12.30;91.70
76211;DHT22;65003;49.518;11.280;2023-05-16T05:32:04;12.50;91.50
76211;DHT22;65003;49.518;11.280;2023-05-16T05:34:30;12.90;91.00
76211;DHT22;65003;49.518;11.280;2023-05-16T05:36:57;13.10;90.50
76211;DHT22;65003;49.518;11.280;2023-05-16T05:39:23;13.40;90.00
76211;DHT22;65003;49.518;11.280;2023-05-16T05:41:50;13.50;89.80
76211;DHT22;65003;49.518;11.280;2023-05-16T05:44:17;13.70;88.90
76211;DHT22;65003;49.518;11.280;2023-05-16T05:46:44;13.80;87.20
76211;DHT22;65003;49.518;11.280;2023-05-16T05:49:10;14.10;87.00
76211;DHT22;65003;49.518;11.280;2023-05-16T05:51:37;14.20;86.80
76211;DHT22;65003;49.518;11.280;2023-05-16T05:54:04;14.40;86.30
76211;DHT22;65003;49.518;11.280;2023-05-16T05:56:31;14.60;86.00
76211;DHT22;65003;49.518;11.280;2023-05-16T05:58:58;14.80;85.60
76211;DHT22;65003;49.518;11.280;2023-05-16T06:01:24;14.90;85.10
76211;DHT22;65003;49.518;11.280;2023-05-16T06:03:51;15.30;84.50
76211;DHT22;65003;49.518;11.280;2023-05-16T06:06:18;15.60;83.80
76211;DHT22;65003;49.518;11.280;2023-05-16T06:08:45;16.00;82.40
76211;DHT22;65003;49.518;11.280;2023-05-16T06:11:11;16.50;80.60
76211;DHT22;65003;49.518;11.280;2023-05-16T06:13:38;16.90;78.30
76211;DHT22;65003;49.518;11.280;2023-05-16T06:16:05;17.30;76.80
76211;DHT22;65003;49.518;11.280;2023-05-16T06:18:32;17.60;75.50
76211;DHT22;65003;49.518;11.280;2023-05-16T06:20:58;18.00;73.30
76211;DHT22;65003;49.518;11.280;2023-05-16T06:23:26;18.30;71.60
76211;DHT22;65003;49.518;11.280;2023-05-16T06:25:52;18.90;70.50
76211;DHT22;65003;49.518;11.280;2023-05-16T06:28:19;19.60;68.70
76211;DHT22;65003;49.518;11.280;2023-05-16T06:30:45;20.50;65.40
76211;DHT22;65003;49.518;11.280;2023-05-16T06:33:13;21.40;62.60
76211;DHT22;65003;49.518;11.280;2023-05-16T06:35:39;22.60;57.70
76211;DHT22;65003;49.518;11.280;2023-05-16T06:38:05;23.70;53.90
76211;DHT22;65003;49.518;11.280;2023-05-16T06:40:32;24.70;51.10
76211;DHT22;65003;49.518;11.280;2023-05-16T06:42:59;25.20;48.80
76211;DHT22;65003;49.518;11.280;2023-05-16T06:45:25;25.30;47.40
76211;DHT22;65003;49.518;11.280;2023-05-16T06:47:53;25.30;46.70
76211;DHT22;65003;49.518;11.280;2023-05-16T06:50:19;25.70;46.80
76211;DHT22;65003;49.518;11.280;2023-05-16T06:52:46;26.50;45.20
76211;DHT22;65003;49.518;11.280;2023-05-16T06:55:12;27.60;42.40
76211;DHT22;65003;49.518;11.280;2023-05-16T06:57:39;28.90;40.00
76211;DHT22;65003;49.518;11.280;2023-05-16T07:00:06;29.80;37.70
76211;DHT22;65003;49.518;11.280;2023-05-16T07:02:33;30.70;36.40
76211;DHT22;65003;49.518;11.280;2023-05-16T07:05:00;31.50;33.70
76211;DHT22;65003;49.518;11.280;2023-05-16T07:07:26;32.20;31.20
76211;DHT22;65003;49.518;11.280;2023-05-16T07:09:53;32.10;30.60
76211;DHT22;65003;49.518;11.280;2023-05-16T07:12:19;32.50;30.00
76211;DHT22;65003;49.518;11.280;2023-05-16T07:14:46;32.90;29.90
76211;DHT22;65003;49.518;11.280;2023-05-16T07:17:13;33.50;29.20
76211;DHT22;65003;49.518;11.280;2023-05-16T07:19:39;33.90;28.60
76211;DHT22;65003;49.518;11.280;2023-05-16T07:22:06;34.20;27.60
76211;DHT22;65003;49.518;11.280;2023-05-16T07:24:33;34.60;27.30
76211;DHT22;65003;49.518;11.280;2023-05-16T07:26:59;35.10;26.20
76211;DHT22;65003;49.518;11.280;2023-05-16T07:29:26;35.80;25.90
76211;DHT22;65003;49.518;11.280;2023-05-16T07:31:52;36.60;24.80
76211;DHT22;65003;49.518;11.280;2023-05-16T07:34:19;37.10;24.30
76211;DHT22;65003;49.518;11.280;2023-05-16T07:36:46;37.60;24.10
76211;DHT22;65003;49.518;11.280;2023-05-16T07:39:12;37.90;24.30
76211;DHT22;65003;49.518;11.280;2023-05-16T07:41:39;37.50;24.40
76211;DHT22;65003;49.518;11.280;2023-05-16T07:44:06;37.20;24.60
76211;DHT22;65003;49.518;11.280;2023-05-16T07:46:32;36.80;24.90
76211;DHT22;65003;49.518;11.280;2023-05-16T07:48:59;36.90;24.70
76211;DHT22;65003;49.518;11.280;2023-05-16T07:51:25;37.10;23.90
76211;DHT22;65003;49.518;11.280;2023-05-16T07:53:52;37.50;24.10
76211;DHT22;65003;49.518;11.280;2023-05-16T07:56:19;37.90;23.20
76211;DHT22;65003;49.518;11.280;2023-05-16T07:58:45;37.40;24.00
76211;DHT22;65003;49.518;11.280;2023-05-16T08:01:12;37.30;24.10
76211;DHT22;65003;49.518;11.280;2023-05-16T08:03:38;37.80;23.60
76211;DHT22;65003;49.518;11.280;2023-05-16T08:06:05;38.30;23.20
76211;DHT22;65003;49.518;11.280;2023-05-16T08:08:32;38.20;23.30
76211;DHT22;65003;49.518;11.280;2023-05-16T08:10:58;38.00;23.50
76211;DHT22;65003;49.518;11.280;2023-05-16T08:13:25;38.10;23.20
76211;DHT22;65003;49.518;11.280;2023-05-16T08:15:52;37.10;24.20
76211;DHT22;65003;49.518;11.280;2023-05-16T08:18:19;36.70;24.30
76211;DHT22;65003;49.518;11.280;2023-05-16T08:20:45;36.40;25.10
76211;DHT22;65003;49.518;11.280;2023-05-16T08:23:12;35.90;24.70
76211;DHT22;65003;49.518;11.280;2023-05-16T08:25:39;34.90;25.30
76211;DHT22;65003;49.518;11.280;2023-05-16T08:28:05;33.70;26.50
76211;DHT22;65003;49.518;11.280;2023-05-16T08:30:32;32.50;27.60
76211;DHT22;65003;49.518;11.280;2023-05-16T08:32:58;32.10;28.40
76211;DHT22;65003;49.518;11.280;2023-05-16T08:35:25;32.20;28.70
76211;DHT22;65003;49.518;11.280;2023-05-16T08:37:52;32.10;28.70
76211;DHT22;65003;49.518;11.280;2023-05-16T08:40:18;31.90;29.20
76211;DHT22;65003;49.518;11.280;2023-05-16T08:42:45;31.10;29.60
76211;DHT22;65003;49.518;11.280;2023-05-16T08:45:11;30.70;30.60
76211;DHT22;65003;49.518;11.280;2023-05-16T08:47:38;31.10;30.10
76211;DHT22;65003;49.518;11.280;2023-05-16T08:50:06;31.70;29.60
76211;DHT22;65003;49.518;11.280;2023-05-16T08:52:33;33.10;28.80
76211;DHT22;65003;49.518;11.280;2023-05-16T08:55:01;35.10;26.80
76211;DHT22;65003;49.518;11.280;2023-05-16T08:57:27;36.60;25.60
76211;DHT22;65003;49.518;11.280;2023-05-16T08:59:54;37.30;24.60
76211;DHT22;65003;49.518;11.280;2023-05-16T09:02:20;37.70;23.90
76211;DHT22;65003;49.518;11.280;2023-05-16T09:04:47;38.50;23.50
76211;DHT22;65003;49.518;11.280;2023-05-16T09:07:13;38.80;23.10
76211;DHT22;65003;49.518;11.280;2023-05-16T09:09:40;39.30;22.40
76211;DHT22;65003;49.518;11.280;2023-05-16T09:12:07;39.50;22.40
76211;DHT22;65003;49.518;11.280;2023-05-16T09:14:33;39.40;22.80
76211;DHT22;65003;49.518;11.280;2023-05-16T09:17:04;39.30;22.30
76211;DHT22;65003;49.518;11.280;2023-05-16T09:19:39;39.20;22.00
76211;DHT22;65003;49.518;11.280;2023-05-16T09:22:12;39.60;21.90
76211;DHT22;65003;49.518;11.280;2023-05-16T09:24:39;39.60;21.50
76211;DHT22;65003;49.518;11.280;2023-05-16T09:27:07;39.00;22.50
76211;DHT22;65003;49.518;11.280;2023-05-16T09:29:33;38.60;22.10
76211;DHT22;65003;49.518;11.280;2023-05-16T09:32:09;37.60;22.50
76211;DHT22;65003;49.518;11.280;2023-05-16T09:34:38;35.10;24.40
76211;DHT22;65003;49.518;11.280;2023-05-16T09:37:04;32.70;26.50
76211;DHT22;65003;49.518;11.280;2023-05-16T09:39:31;31.60;27.60
76211;DHT22;65003;49.518;11.280;2023-05-16T09:41:58;30.00;29.10
76211;DHT22;65003;49.518;11.280;2023-05-16T09:44:24;28.90;30.50
76211;DHT22;65003;49.518;11.280;2023-05-16T09:46:52;27.50;32.00
76211;DHT22;65003;49.518;11.280;2023-05-16T09:49:17;26.80;33.30
76211;DHT22;65003;49.518;11.280;2023-05-16T09:51:44;26.20;34.70
76211;DHT22;65003;49.518;11.280;2023-05-16T09:54:10;25.90;35.40
76211;DHT22;65003;49.518;11.280;2023-05-16T09:56:47;25.50;36.40
76211;DHT22;65003;49.518;11.280;2023-05-16T09:59:14;25.00;40.70
76211;DHT22;65003;49.518;11.280;2023-05-16T10:01:41;24.20;43.30
76211;DHT22;65003;49.518;11.280;2023-05-16T10:04:07;23.60;45.00
76211;DHT22;65003;49.518;11.280;2023-05-16T10:06:34;22.90;47.00
76211;DHT22;65003;49.518;11.280;2023-05-16T10:09:01;22.30;48.50
76211;DHT22;65003;49.518;11.280;2023-05-16T10:11:27;22.10;49.20
76211;DHT22;65003;49.518;11.280;2023-05-16T10:13:54;22.00;50.20
76211;DHT22;65003;49.518;11.280;2023-05-16T10:16:20;22.30;49.90
76211;DHT22;65003;49.518;11.280;2023-05-16T10:18:47;22.40;49.10
76211;DHT22;65003;49.518;11.280;2023-05-16T10:21:14;22.40;47.50
76211;DHT22;65003;49.518;11.280;2023-05-16T10:23:41;22.40;47.10
76211;DHT22;65003;49.518;11.280;2023-05-16T10:26:07;22.20;47.60
76211;DHT22;65003;49.518;11.280;2023-05-16T10:28:34;22.00;48.30
76211;DHT22;65003;49.518;11.280;2023-05-16T10:31:00;22.00;49.40
76211;DHT22;65003;49.518;11.280;2023-05-16T10:33:27;22.10;48.10
76211;DHT22;65003;49.518;11.280;2023-05-16T10:35:54;22.30;48.30
76211;DHT22;65003;49.518;11.280;2023-05-16T10:38:20;22.60;46.00
76211;DHT22;65003;49.518;11.280;2023-05-16T10:40:46;22.50;45.10
76211;DHT22;65003;49.518;11.280;2023-05-16T10:43:21;22.10;45.80
76211;DHT22;65003;49.518;11.280;2023-05-16T10:45:40;21.80;45.70
76211;DHT22;65003;49.518;11.280;2023-05-16T10:48:07;21.60;45.30
76211;DHT22;65003;49.518;11.280;2023-05-16T10:50:37;21.60;45.50
76211;DHT22;65003;49.518;11.280;2023-05-16T10:53:11;21.70;45.00
76211;DHT22;65003;49.518;11.280;2023-05-16T10:55:37;21.70;45.00
76211;DHT22;65003;49.518;11.280;2023-05-16T10:58:04;21.60;46.20
76211;DHT22;65003;49.518;11.280;2023-05-16T11:00:30;21.30;46.20
76211;DHT22;65003;49.518;11.280;2023-05-16T11:03:03;21.00;48.50
76211;DHT22;65003;49.518;11.280;2023-05-16T11:05:29;20.80;47.70
76211;DHT22;65003;49.518;11.280;2023-05-16T11:08:01;20.70;48.40
76211;DHT22;65003;49.518;11.280;2023-05-16T11:10:27;20.50;49.70
76211;DHT22;65003;49.518;11.280;2023-05-16T11:12:54;20.40;49.80
76211;DHT22;65003;49.518;11.280;2023-05-16T11:15:24;20.50;49.30
76211;DHT22;65003;49.518;11.280;2023-05-16T11:17:53;20.60;49.30
76211;DHT22;65003;49.518;11.280;2023-05-16T11:20:24;20.50;49.70
76211;DHT22;65003;49.518;11.280;2023-05-16T11:22:50;20.40;50.40
76211;DHT22;65003;49.518;11.280;2023-05-16T11:25:17;20.40;50.40
76211;DHT22;65003;49.518;11.280;2023-05-16T11:27:44;20.50;49.90
76211;DHT22;65003;49.518;11.280;2023-05-16T11:30:12;20.60;50.30
76211;DHT22;65003;49.518;11.280;2023-05-16T11:32:40;20.80;49.80
76211;DHT22;65003;49.518;11.280;2023-05-16T11:35:07;20.70;48.80
76211;DHT22;65003;49.518;11.280;2023-05-16T11:37:33;20.70;49.60
76211;DHT22;65003;49.518;11.280;2023-05-16T11:40:00;20.40;49.90
76211;DHT22;65003;49.518;11.280;2023-05-16T11:42:30;20.50;49.40
76211;DHT22;65003;49.518;11.280;2023-05-16T11:45:04;20.60;49.60
76211;DHT22;65003;49.518;11.280;2023-05-16T11:47:30;20.80;50.20
76211;DHT22;65003;49.518;11.280;2023-05-16T11:49:57;21.00;49.80
76211;DHT22;65003;49.518;11.280;2023-05-16T11:52:23;21.30;49.30
76211;DHT22;65003;49.518;11.280;2023-05-16T11:54:50;21.50;47.50
76211;DHT22;65003;49.518;11.280;2023-05-16T11:57:17;21.50;46.70
76211;DHT22;65003;49.518;11.280;2023-05-16T11:59:43;21.40;46.70
76211;DHT22;65003;49.518;11.280;2023-05-16T12:02:10;21.50;46.70
76211;DHT22;65003;49.518;11.280;2023-05-16T12:04:36;21.30;45.20
76211;DHT22;65003;49.518;11.280;2023-05-16T12:07:03;21.20;46.00
76211;DHT22;65003;49.518;11.280;2023-05-16T12:09:30;21.00;47.90
76211;DHT22;65003;49.518;11.280;2023-05-16T12:11:56;20.90;48.30
76211;DHT22;65003;49.518;11.280;2023-05-16T12:14:23;21.00;48.20
76211;DHT22;65003;49.518;11.280;2023-05-16T12:16:50;21.10;49.00
76211;DHT22;65003;49.518;11.280;2023-05-16T12:19:17;21.30;47.70
76211;DHT22;65003;49.518;11.280;2023-05-16T12:21:44;21.20;47.30
76211;DHT22;65003;49.518;11.280;2023-05-16T12:24:10;20.90;47.70
76211;DHT22;65003;49.518;11.280;2023-05-16T12:26:38;20.70;47.60
76211;DHT22;65003;49.518;11.280;2023-05-16T12:29:04;20.80;49.20
76211;DHT22;65003;49.518;11.280;2023-05-16T12:31:31;20.60;49.50
76211;DHT22;65003;49.518;11.280;2023-05-16T12:33:57;20.50;49.20
76211;DHT22;65003;49.518;11.280;2023-05-16T12:36:24;20.70;48.50
76211;DHT22;65003;49.518;11.280;2023-05-16T12:38:51;20.90;48.10
76211;DHT22;65003;49.518;11.280;2023-05-16T12:41:17;21.10;48.70
76211;DHT22;65003;49.518;11.280;2023-05-16T12:43:44;21.20;48.20
76211;DHT22;65003;49.518;11.280;2023-05-16T12:46:11;21.20;48.70
76211;DHT22;65003;49.518;11.280;2023-05-16T12:48:37;21.30;48.10
76211;DHT22;65003;49.518;11.280;2023-05-16T12:51:11;21.30;48.00
76211;DHT22;65003;49.518;11.280;2023-05-16T12:53:42;21.10;47.30
76211;DHT22;65003;49.518;11.280;2023-05-16T12:56:08;21.00;47.30
76211;DHT22;65003;49.518;11.280;2023-05-16T12:58:35;20.90;48.30
76211;DHT22;65003;49.518;11.280;2023-05-16T13:01:01;20.90;49.50
76211;DHT22;65003;49.518;11.280;2023-05-16T13:03:28;21.10;48.70
76211;DHT22;65003;49.518;11.280;2023-05-16T13:05:54;21.00;48.70
76211;DHT22;65003;49.518;11.280;2023-05-16T13:08:21;21.10;47.70
76211;DHT22;65003;49.518;11.280;2023-05-16T13:10:48;21.00;47.00
76211;DHT22;65003;49.518;11.280;2023-05-16T13:13:14;20.70;46.80
76211;DHT22;65003;49.518;11.280;2023-05-16T13:15:41;20.60;48.10
76211;DHT22;65003;49.518;11.280;2023-05-16T13:18:07;20.50;48.50
76211;DHT22;65003;49.518;11.280;2023-05-16T13:20:34;20.50;48.90
76211;DHT22;65003;49.518;11.280;2023-05-16T13:23:01;20.40;49.20
76211;DHT22;65003;49.518;11.280;2023-05-16T13:25:27;20.10;49.30
76211;DHT22;65003;49.518;11.280;2023-05-16T13:27:54;19.90;49.70
76211;DHT22;65003;49.518;11.280;2023-05-16T13:30:21;19.90;50.30
76211;DHT22;65003;49.518;11.280;2023-05-16T13:32:47;19.90;49.60
76211;DHT22;65003;49.518;11.280;2023-05-16T13:35:14;20.00;49.80
76211;DHT22;65003;49.518;11.280;2023-05-16T13:37:41;20.10;50.00
76211;DHT22;65003;49.518;11.280;2023-05-16T13:40:08;20.30;49.90
76211;DHT22;65003;49.518;11.280;2023-05-16T13:42:35;20.40;49.70
76211;DHT22;65003;49.518;11.280;2023-05-16T13:45:04;20.40;49.70
76211;DHT22;65003;49.518;11.280;2023-05-16T13:47:31;20.40;49.40
76211;DHT22;65003;49.518;11.280;2023-05-16T13:49:58;20.40;48.90
76211;DHT22;65003;49.518;11.280;2023-05-16T13:52:25;20.50;50.00
76211;DHT22;65003;49.518;11.280;2023-05-16T13:54:51;20.50;48.70
76211;DHT22;65003;49.518;11.280;2023-05-16T13:57:18;20.30;48.80
76211;DHT22;65003;49.518;11.280;2023-05-16T13:59:45;20.20;49.80
76211;DHT22;65003;49.518;11.280;2023-05-16T14:02:12;20.20;49.10
76211;DHT22;65003;49.518;11.280;2023-05-16T14:04:38;20.00;49.80
76211;DHT22;65003;49.518;11.280;2023-05-16T14:07:05;19.60;50.60
76211;DHT22;65003;49.518;11.280;2023-05-16T14:09:31;19.40;51.70
76211;DHT22;65003;49.518;11.280;2023-05-16T14:11:58;19.10;51.40
76211;DHT22;65003;49.518;11.280;2023-05-16T14:14:25;19.00;51.50
76211;DHT22;65003;49.518;11.280;2023-05-16T14:16:51;18.80;52.60
76211;DHT22;65003;49.518;11.280;2023-05-16T14:19:18;18.70;52.90
76211;DHT22;65003;49.518;11.280;2023-05-16T14:21:44;18.50;53.50
76211;DHT22;65003;49.518;11.280;2023-05-16T14:24:11;18.40;53.50
76211;DHT22;65003;49.518;11.280;2023-05-16T14:26:37;18.40;54.40
76211;DHT22;65003;49.518;11.280;2023-05-16T14:29:04;18.50;53.00
76211;DHT22;65003;49.518;11.280;2023-05-16T14:31:31;18.50;52.30
76211;DHT22;65003;49.518;11.280;2023-05-16T14:33:58;18.30;52.30
76211;DHT22;65003;49.518;11.280;2023-05-16T14:36:24;18.20;53.10
76211;DHT22;65003;49.518;11.280;2023-05-16T14:38:51;18.00;52.90
76211;DHT22;65003;49.518;11.280;2023-05-16T14:41:18;17.80;53.80
76211;DHT22;65003;49.518;11.280;2023-05-16T14:43:44;17.60;54.90
76211;DHT22;65003;49.518;11.280;2023-05-16T14:46:11;17.40;56.00
76211;DHT22;65003;49.518;11.280;2023-05-16T14:48:37;17.30;56.50
76211;DHT22;65003;49.518;11.280;2023-05-16T14:51:04;17.30;55.90
76211;DHT22;65003;49.518;11.280;2023-05-16T14:53:31;17.30;56.20
76211;DHT22;65003;49.518;11.280;2023-05-16T14:55:57;17.30;56.20
76211;DHT22;65003;49.518;11.280;2023-05-16T14:58:24;17.20;56.40
76211;DHT22;65003;49.518;11.280;2023-05-16T15:00:50;16.90;56.90
76211;DHT22;65003;49.518;11.280;2023-05-16T15:03:17;16.60;57.80
76211;DHT22;65003;49.518;11.280;2023-05-16T15:05:44;16.40;59.10
76211;DHT22;65003;49.518;11.280;2023-05-16T15:08:10;16.20;59.50
76211;DHT22;65003;49.518;11.280;2023-05-16T15:10:37;16.10;59.90
76211;DHT22;65003;49.518;11.280;2023-05-16T15:13:03;16.20;60.00